createdAt,value
2023-02-26T00:01:33.274Z,2.60
2023-02-26T00:04:03.308Z,2.40
2023-02-26T00:06:33.654Z,2.60
2023-02-26T00:09:00.870Z,1.80
2023-02-26T00:11:28.185Z,3.00
2023-02-26T00:13:55.657Z,2.40
2023-02-26T00:16:32.341Z,2.00
2023-02-26T00:19:02.211Z,3.33
2023-02-26T00:21:30.054Z,2.07
2023-02-26T00:23:58.569Z,2.33
2023-02-26T00:26:27.457Z,2.60
2023-02-26T00:28:55.430Z,2.67
2023-02-26T00:31:24.990Z,2.50
2023-02-26T00:33:54.111Z,1.90
2023-02-26T00:36:41.824Z,2.67
2023-02-26T00:39:24.051Z,2.00
2023-02-26T00:41:51.146Z,2.30
2023-02-26T00:44:18.303Z,2.17
2023-02-26T00:47:20.773Z,3.70
2023-02-26T00:50:07.934Z,2.10
2023-02-26T00:53:05.880Z,2.37
2023-02-26T00:55:32.793Z,2.80
2023-02-26T00:58:00.037Z,2.07
2023-02-26T01:00:27.068Z,2.60
2023-02-26T01:02:54.465Z,2.50
2023-02-26T01:05:21.876Z,2.57
2023-02-26T01:08:22.588Z,2.30
2023-02-26T01:10:50.035Z,2.87
2023-02-26T01:13:16.988Z,2.30
2023-02-26T01:15:49.842Z,1.80
2023-02-26T01:18:26.136Z,2.33
2023-02-26T01:21:25.094Z,3.23
2023-02-26T01:23:52.552Z,2.43
2023-02-26T01:26:21.735Z,2.57
2023-02-26T01:28:49.286Z,2.63
2023-02-26T01:31:48.743Z,2.37
2023-02-26T01:34:34.394Z,2.60
2023-02-26T01:37:39.970Z,2.77
2023-02-26T01:40:24.895Z,2.60
2023-02-26T01:42:56.216Z,2.80
2023-02-26T01:45:44.684Z,2.50
2023-02-26T01:48:35.891Z,2.97
2023-02-26T01:51:03.137Z,2.63
2023-02-26T01:53:30.241Z,2.97
2023-02-26T01:56:01.741Z,2.80
2023-02-26T01:58:34.100Z,3.37
2023-02-26T02:01:02.223Z,2.93
2023-02-26T02:03:33.160Z,5.73
2023-02-26T02:06:16.369Z,2.57
2023-02-26T02:08:45.629Z,3.17
2023-02-26T02:11:14.719Z,3.30
2023-02-26T02:14:05.536Z,2.73
2023-02-26T02:16:35.671Z,6.37
2023-02-26T02:19:23.907Z,5.63
2023-02-26T02:22:20.845Z,7.83
2023-02-26T02:25:25.731Z,6.30
2023-02-26T02:28:57.783Z,4.70
2023-02-26T02:31:33.444Z,3.63
2023-02-26T02:34:16.688Z,3.17
2023-02-26T02:36:58.272Z,2.40
2023-02-26T02:39:35.186Z,3.83
2023-02-26T02:42:39.836Z,3.20
2023-02-26T02:45:19.688Z,3.57
2023-02-26T02:47:52.988Z,3.60
2023-02-26T02:50:35.612Z,9.90
2023-02-26T02:53:08.400Z,3.00
2023-02-26T02:55:40.794Z,3.57
2023-02-26T02:58:17.277Z,4.37
2023-02-26T03:00:53.255Z,4.73
2023-02-26T03:03:43.222Z,6.50
2023-02-26T03:06:10.602Z,4.43
2023-02-26T03:08:41.506Z,3.43
2023-02-26T03:11:09.096Z,3.57
2023-02-26T03:13:37.392Z,3.37
2023-02-26T03:16:24.274Z,4.47
2023-02-26T03:19:08.359Z,3.53
2023-02-26T03:21:45.459Z,4.07
2023-02-26T03:24:19.045Z,3.57
2023-02-26T03:27:08.750Z,5.20
2023-02-26T03:29:41.729Z,4.23
2023-02-26T03:32:30.052Z,3.50
2023-02-26T03:35:11.794Z,3.63
2023-02-26T03:37:40.929Z,15.60
2023-02-26T03:40:13.980Z,3.60
2023-02-26T03:43:31.909Z,22.77
2023-02-26T03:46:03.901Z,10.23
2023-02-26T03:48:34.075Z,4.20
2023-02-26T03:51:07.121Z,4.30
2023-02-26T03:53:39.813Z,6.13
2023-02-26T03:56:21.851Z,4.10
2023-02-26T03:58:49.305Z,4.60
2023-02-26T04:01:22.198Z,4.23
2023-02-26T04:04:07.000Z,5.73
2023-02-26T04:06:34.833Z,4.43
2023-02-26T04:09:04.885Z,4.77
2023-02-26T04:11:32.630Z,4.80
2023-02-26T04:13:59.720Z,4.70
2023-02-26T04:16:27.261Z,4.13
2023-02-26T04:18:56.898Z,3.63
2023-02-26T04:21:24.190Z,3.80
2023-02-26T04:23:51.369Z,3.40
2023-02-26T04:26:18.239Z,3.40
2023-02-26T04:28:45.359Z,3.40
2023-02-26T04:31:12.367Z,3.33
2023-02-26T04:33:39.368Z,3.50
2023-02-26T04:36:06.552Z,3.87
2023-02-26T04:38:33.643Z,2.47
2023-02-26T04:41:02.171Z,3.00
2023-02-26T04:43:29.502Z,2.83
2023-02-26T04:45:56.412Z,2.03
2023-02-26T04:48:23.514Z,2.50
2023-02-26T04:50:50.386Z,2.80
2023-02-26T04:53:18.412Z,2.20
2023-02-26T04:55:48.776Z,2.43
2023-02-26T04:58:17.257Z,3.70
2023-02-26T05:00:47.682Z,2.70
2023-02-26T05:03:14.720Z,2.40
2023-02-26T05:05:42.114Z,2.23
2023-02-26T05:08:09.196Z,1.73
2023-02-26T05:10:36.234Z,1.97
2023-02-26T05:13:03.612Z,2.33
2023-02-26T05:15:30.665Z,2.10
2023-02-26T05:17:57.496Z,2.03
2023-02-26T05:20:24.702Z,1.90
2023-02-26T05:22:51.802Z,1.90
2023-02-26T05:25:19.117Z,2.53
2023-02-26T05:27:46.069Z,1.50
2023-02-26T05:30:16.200Z,1.80
2023-02-26T05:32:43.744Z,1.37
2023-02-26T05:35:10.837Z,2.00
2023-02-26T05:37:38.342Z,1.83
2023-02-26T05:40:09.384Z,1.53
2023-02-26T05:42:36.958Z,1.90
2023-02-26T05:45:06.159Z,1.93
2023-02-26T05:47:36.130Z,2.20
2023-02-26T05:50:04.866Z,2.63
2023-02-26T05:52:31.888Z,2.90
2023-02-26T05:54:58.938Z,2.23
2023-02-26T05:57:26.082Z,1.97
2023-02-26T05:59:53.231Z,2.07
2023-02-26T06:02:21.366Z,2.20
2023-02-26T06:04:48.618Z,1.97
2023-02-26T06:07:15.718Z,2.00
2023-02-26T06:09:43.071Z,2.50
2023-02-26T06:12:10.171Z,2.37
2023-02-26T06:14:37.334Z,1.90
2023-02-26T06:17:05.369Z,1.87
2023-02-26T06:19:32.850Z,1.77
2023-02-26T06:21:59.926Z,1.80
2023-02-26T06:24:26.821Z,1.70
2023-02-26T06:26:53.715Z,2.23
2023-02-26T06:29:20.780Z,2.03
2023-02-26T06:31:48.365Z,1.23
2023-02-26T06:34:15.705Z,4.53
2023-02-26T06:36:42.549Z,3.83
2023-02-26T06:39:09.370Z,1.60
2023-02-26T06:41:36.193Z,2.70
2023-02-26T06:44:03.122Z,3.70
2023-02-26T06:46:30.797Z,2.47
2023-02-26T06:48:57.638Z,1.83
2023-02-26T06:51:24.532Z,1.50
2023-02-26T06:53:51.314Z,1.37
2023-02-26T06:56:18.190Z,1.30
2023-02-26T06:58:44.976Z,6.47
2023-02-26T07:01:11.812Z,2.60
2023-02-26T07:03:38.642Z,4.37
2023-02-26T07:06:26.064Z,2.73
2023-02-26T07:08:53.916Z,5.47
2023-02-26T07:11:20.805Z,2.50
2023-02-26T07:13:47.638Z,3.43
2023-02-26T07:16:14.566Z,6.53
2023-02-26T07:18:41.343Z,2.30
2023-02-26T07:21:08.157Z,3.03
2023-02-26T07:23:35.114Z,2.50
2023-02-26T07:26:02.406Z,1.50
2023-02-26T07:28:29.238Z,1.80
2023-02-26T07:30:57.044Z,3.97
2023-02-26T07:33:26.600Z,3.20
2023-02-26T07:35:53.554Z,3.23
2023-02-26T07:38:20.904Z,2.60
2023-02-26T07:40:47.860Z,4.40
2023-02-26T07:43:14.725Z,1.67
2023-02-26T07:45:41.542Z,2.13
2023-02-26T07:48:08.466Z,1.67
2023-02-26T07:50:35.496Z,3.67
2023-02-26T07:53:02.338Z,1.40
2023-02-26T07:55:29.961Z,1.50
2023-02-26T07:57:56.874Z,3.43
2023-02-26T08:00:23.770Z,6.93
2023-02-26T08:02:50.602Z,3.63
2023-02-26T08:05:17.657Z,3.47
2023-02-26T08:07:44.430Z,2.17
2023-02-26T08:10:11.881Z,1.57
2023-02-26T08:12:38.860Z,1.90
2023-02-26T08:15:06.445Z,1.80
2023-02-26T08:17:34.035Z,1.70
2023-02-26T08:20:00.903Z,2.23
2023-02-26T08:22:27.749Z,2.57
2023-02-26T08:24:54.544Z,2.23
2023-02-26T08:27:21.331Z,1.90
2023-02-26T08:29:50.333Z,1.23
2023-02-26T08:32:19.787Z,2.40
2023-02-26T08:34:47.295Z,1.77
2023-02-26T08:37:14.527Z,3.43
2023-02-26T08:39:41.484Z,2.23
2023-02-26T08:42:10.219Z,2.33
2023-02-26T08:44:37.198Z,3.80
2023-02-26T08:47:04.126Z,2.93
2023-02-26T08:49:30.975Z,3.60
2023-02-26T08:51:58.032Z,1.90
2023-02-26T08:54:25.186Z,2.23
2023-02-26T08:56:55.797Z,1.93
2023-02-26T08:59:22.603Z,2.23
2023-02-26T09:01:49.529Z,3.07
2023-02-26T09:04:16.807Z,3.10
2023-02-26T09:06:43.655Z,10.20
2023-02-26T09:09:10.554Z,3.80
2023-02-26T09:11:37.772Z,3.83
2023-02-26T09:14:05.659Z,2.97
2023-02-26T09:16:36.784Z,3.87
2023-02-26T09:19:05.607Z,3.33
2023-02-26T09:21:33.247Z,3.70
2023-02-26T09:24:00.084Z,3.97
2023-02-26T09:26:27.467Z,3.83
2023-02-26T09:28:54.534Z,4.80
2023-02-26T09:31:21.508Z,3.70
2023-02-26T09:33:48.352Z,3.80
2023-02-26T09:36:15.519Z,3.13
2023-02-26T09:38:44.337Z,2.90
2023-02-26T09:41:30.036Z,26.77
2023-02-26T09:44:15.854Z,2.93
2023-02-26T09:47:06.028Z,2.50
2023-02-26T09:49:47.973Z,2.20
2023-02-26T09:52:28.124Z,2.20
2023-02-26T09:55:01.492Z,3.40
2023-02-26T09:57:40.286Z,3.00
2023-02-26T10:00:28.337Z,2.20
2023-02-26T10:03:12.492Z,2.93
2023-02-26T10:05:42.513Z,2.97
2023-02-26T10:08:16.376Z,2.43
2023-02-26T10:11:08.098Z,1.70
2023-02-26T10:13:57.710Z,2.10
2023-02-26T10:16:30.355Z,4.10
2023-02-26T10:19:08.285Z,3.00
2023-02-26T10:21:44.762Z,2.30
2023-02-26T10:24:38.965Z,24.83
2023-02-26T10:27:12.078Z,3.50
2023-02-26T10:29:59.404Z,4.77
2023-02-26T10:32:29.320Z,3.47
2023-02-26T10:34:59.920Z,3.07
2023-02-26T10:37:29.684Z,6.90
2023-02-26T10:40:09.318Z,4.60
2023-02-26T10:42:42.526Z,5.57
2023-02-26T10:45:37.120Z,7.30
2023-02-26T10:48:25.081Z,4.13
2023-02-26T10:50:58.053Z,3.07
2023-02-26T10:53:27.773Z,3.37
2023-02-26T10:56:18.335Z,4.30
2023-02-26T10:58:46.524Z,4.43
2023-02-26T11:01:23.835Z,4.23
2023-02-26T11:03:59.088Z,4.13
2023-02-26T11:06:47.706Z,1.80
2023-02-26T11:09:24.993Z,3.20
2023-02-26T11:12:14.322Z,3.20
2023-02-26T11:14:43.073Z,2.60
2023-02-26T11:17:32.392Z,2.87
2023-02-26T11:20:05.412Z,2.57
2023-02-26T11:22:36.143Z,2.10
2023-02-26T11:25:04.275Z,2.50
2023-02-26T11:27:34.848Z,2.33
2023-02-26T11:30:07.201Z,2.10
2023-02-26T11:32:37.334Z,3.23
2023-02-26T11:35:08.927Z,2.43
2023-02-26T11:37:39.171Z,3.90
2023-02-26T11:40:34.538Z,2.97
2023-02-26T11:43:05.932Z,2.20
2023-02-26T11:45:36.790Z,2.00
2023-02-26T11:48:07.214Z,2.90
2023-02-26T11:50:43.616Z,2.40
2023-02-26T11:53:25.977Z,5.37
2023-02-26T11:55:57.614Z,3.63
2023-02-26T11:58:25.428Z,3.87
2023-02-26T12:00:53.693Z,3.73
2023-02-26T12:03:26.506Z,2.90
2023-02-26T12:05:53.382Z,3.47
2023-02-26T12:08:38.558Z,3.60
2023-02-26T12:11:13.390Z,3.03
2023-02-26T12:13:49.145Z,2.50
2023-02-26T12:16:28.141Z,2.03
2023-02-26T12:19:06.359Z,3.00
2023-02-26T12:21:54.667Z,2.27
2023-02-26T12:24:27.488Z,1.50
2023-02-26T12:27:09.511Z,1.80
2023-02-26T12:29:50.648Z,1.63
2023-02-26T12:32:20.548Z,4.83
2023-02-26T12:35:15.536Z,3.33
2023-02-26T12:38:09.625Z,2.60
2023-02-26T12:41:00.908Z,4.73
2023-02-26T12:43:49.487Z,2.67
2023-02-26T12:46:44.226Z,4.23
2023-02-26T12:49:29.434Z,4.90
2023-02-26T12:52:16.182Z,4.00
2023-02-26T12:55:06.313Z,2.07
2023-02-26T12:57:47.609Z,2.43
2023-02-26T13:00:38.462Z,6.20
2023-02-26T13:03:38.898Z,2.60
2023-02-26T13:06:16.467Z,2.43
2023-02-26T13:09:01.371Z,2.00
2023-02-26T13:11:29.437Z,2.00
2023-02-26T13:14:05.241Z,2.23
2023-02-26T13:16:47.603Z,2.47
2023-02-26T13:19:28.649Z,2.87
2023-02-26T13:22:00.931Z,2.90
2023-02-26T13:24:39.910Z,5.30
2023-02-26T13:27:08.259Z,2.43
2023-02-26T13:29:41.100Z,3.40
2023-02-26T13:32:17.011Z,4.30
2023-02-26T13:34:54.693Z,3.70
2023-02-26T13:37:42.363Z,3.17
2023-02-26T13:40:38.650Z,2.37
2023-02-26T13:43:23.174Z,2.43
2023-02-26T13:45:59.223Z,3.83
2023-02-26T13:48:47.698Z,2.70
2023-02-26T13:51:36.131Z,5.40
2023-02-26T13:54:17.429Z,7.83
2023-02-26T13:56:48.684Z,2.43
2023-02-26T13:59:20.164Z,2.23
2023-02-26T14:01:48.034Z,2.33
2023-02-26T14:04:14.815Z,3.40
2023-02-26T14:06:46.030Z,2.83
2023-02-26T14:09:22.163Z,2.47
2023-02-26T14:12:01.196Z,4.13
2023-02-26T14:14:41.848Z,4.97
2023-02-26T14:17:08.736Z,4.20
2023-02-26T14:19:45.790Z,5.03
2023-02-26T14:22:26.040Z,4.07
2023-02-26T14:24:58.402Z,2.90
2023-02-26T14:27:35.852Z,2.57
2023-02-26T14:30:09.046Z,9.00
2023-02-26T14:33:08.497Z,6.20
2023-02-26T14:35:42.324Z,2.70
2023-02-26T14:38:32.498Z,3.30
2023-02-26T14:41:10.540Z,9.53
2023-02-26T14:43:43.492Z,6.40
2023-02-26T14:46:11.303Z,4.40
2023-02-26T14:48:39.477Z,3.97
2023-02-26T14:51:12.538Z,3.63
2023-02-26T14:53:58.764Z,8.30
2023-02-26T14:56:31.395Z,9.70
2023-02-26T14:59:20.798Z,6.17
2023-02-26T15:02:12.405Z,4.00
2023-02-26T15:05:29.834Z,3.33
2023-02-26T15:08:26.712Z,3.20
2023-02-26T15:11:30.122Z,4.57
2023-02-26T15:14:08.717Z,3.27
2023-02-26T15:16:46.470Z,4.53
2023-02-26T15:19:41.262Z,6.00
2023-02-26T15:22:13.918Z,6.03
2023-02-26T15:24:41.240Z,6.57
2023-02-26T15:27:13.946Z,5.50
2023-02-26T15:29:42.058Z,7.57
2023-02-26T15:32:25.950Z,5.57
2023-02-26T15:35:04.790Z,4.07
2023-02-26T15:37:33.724Z,10.53
2023-02-26T15:40:04.892Z,55.97
2023-02-26T15:42:38.612Z,5.83
2023-02-26T15:45:20.242Z,12.13
2023-02-26T15:47:54.165Z,5.97
2023-02-26T15:50:25.705Z,7.67
2023-02-26T15:53:02.273Z,6.53
2023-02-26T15:55:38.074Z,4.00
2023-02-26T15:58:07.446Z,7.17
2023-02-26T16:00:37.177Z,4.40
2023-02-26T16:03:04.702Z,5.43
2023-02-26T16:05:32.354Z,5.33
2023-02-26T16:07:59.317Z,4.40
2023-02-26T16:10:39.922Z,4.20
2023-02-26T16:13:11.659Z,4.27
2023-02-26T16:15:40.025Z,5.77
2023-02-26T16:18:17.477Z,4.37
2023-02-26T16:20:50.226Z,5.23
2023-02-26T16:23:22.022Z,8.57
2023-02-26T16:26:01.215Z,13.73
2023-02-26T16:28:46.331Z,11.90
2023-02-26T16:31:22.031Z,21.77
2023-02-26T16:33:59.877Z,33.97
2023-02-26T16:36:31.534Z,49.10
2023-02-26T16:39:08.849Z,44.30
2023-02-26T16:41:39.390Z,50.50
2023-02-26T16:44:32.248Z,46.47
2023-02-26T16:47:01.181Z,66.73
2023-02-26T16:49:33.727Z,66.60
2023-02-26T16:52:01.498Z,53.77
2023-02-26T16:54:33.448Z,44.93
2023-02-26T16:57:08.822Z,45.80
2023-02-26T16:59:38.550Z,48.73
2023-02-26T17:02:23.231Z,33.10
2023-02-26T17:05:00.485Z,27.17
2023-02-26T17:07:34.780Z,20.17
2023-02-26T17:10:35.139Z,24.10
2023-02-26T17:13:10.457Z,19.67
2023-02-26T17:15:38.831Z,18.07
2023-02-26T17:18:05.697Z,13.87
2023-02-26T17:20:33.287Z,14.20
2023-02-26T17:23:01.932Z,7.33
2023-02-26T17:25:36.736Z,12.57
2023-02-26T17:28:04.406Z,9.97
2023-02-26T17:30:33.493Z,19.63
2023-02-26T17:33:05.260Z,11.07
2023-02-26T17:35:32.419Z,17.27
2023-02-26T17:38:00.566Z,25.80
2023-02-26T17:40:31.771Z,13.20
2023-02-26T17:43:00.131Z,7.20
2023-02-26T17:45:27.097Z,5.50
2023-02-26T17:47:53.972Z,8.03
2023-02-26T17:50:43.934Z,6.63
2023-02-26T17:53:10.885Z,7.37
2023-02-26T17:55:39.569Z,5.97
2023-02-26T17:58:12.667Z,5.57
2023-02-26T18:00:42.021Z,5.57
2023-02-26T18:03:12.083Z,6.53
2023-02-26T18:05:41.128Z,5.87
2023-02-26T18:08:23.196Z,6.23
2023-02-26T18:10:50.970Z,5.40
2023-02-26T18:13:17.821Z,7.03
2023-02-26T18:15:45.104Z,8.87
2023-02-26T18:18:13.375Z,5.30
2023-02-26T18:20:40.827Z,2.60
2023-02-26T18:23:08.223Z,4.73
2023-02-26T18:25:37.062Z,2.83
2023-02-26T18:28:05.102Z,3.00
2023-02-26T18:30:34.595Z,3.13
2023-02-26T18:33:01.778Z,2.50
2023-02-26T18:35:30.788Z,4.13
2023-02-26T18:37:57.931Z,2.63
2023-02-26T18:40:27.237Z,3.43
2023-02-26T18:42:54.077Z,4.30
2023-02-26T18:45:21.352Z,3.03
2023-02-26T18:47:48.605Z,2.87
2023-02-26T18:50:18.838Z,2.70
2023-02-26T18:52:45.680Z,2.13
2023-02-26T18:55:13.516Z,3.30
2023-02-26T18:57:42.500Z,2.73
2023-02-26T19:00:13.962Z,3.07
2023-02-26T19:02:42.458Z,5.30
2023-02-26T19:05:11.076Z,6.47
2023-02-26T19:07:38.354Z,3.67
2023-02-26T19:10:08.088Z,3.10
2023-02-26T19:12:35.179Z,2.83
2023-02-26T19:15:02.262Z,3.40
2023-02-26T19:17:29.104Z,4.03
2023-02-26T19:19:55.903Z,4.97
2023-02-26T19:22:23.130Z,5.27
2023-02-26T19:24:50.110Z,6.20
2023-02-26T19:27:17.068Z,5.70
2023-02-26T19:29:43.983Z,3.97
2023-02-26T19:32:11.008Z,3.67
2023-02-26T19:34:37.910Z,3.40
2023-02-26T19:37:05.639Z,5.47
2023-02-26T19:39:32.646Z,4.40
2023-02-26T19:42:00.361Z,3.67
2023-02-26T19:44:31.910Z,3.57
2023-02-26T19:46:59.437Z,3.63
2023-02-26T19:49:26.332Z,3.20
2023-02-26T19:51:53.388Z,3.83
2023-02-26T19:54:20.613Z,2.70
2023-02-26T19:56:49.430Z,3.83
2023-02-26T19:59:16.759Z,2.80
2023-02-26T20:01:44.096Z,3.30
2023-02-26T20:04:11.021Z,4.33
2023-02-26T20:06:38.007Z,2.73
2023-02-26T20:09:07.196Z,2.60
2023-02-26T20:11:34.530Z,2.13
2023-02-26T20:14:02.471Z,2.67
2023-02-26T20:16:29.371Z,2.77
2023-02-26T20:18:56.218Z,3.03
2023-02-26T20:21:23.513Z,3.53
2023-02-26T20:23:50.411Z,5.93
2023-02-26T20:26:17.358Z,7.03
2023-02-26T20:28:44.291Z,6.93
2023-02-26T20:31:11.645Z,4.63
2023-02-26T20:33:39.537Z,5.07
2023-02-26T20:36:08.534Z,3.90
2023-02-26T20:38:35.577Z,3.20
2023-02-26T20:41:03.137Z,2.80
2023-02-26T20:43:30.138Z,3.37
2023-02-26T20:45:56.970Z,3.37
2023-02-26T20:48:24.533Z,8.67
2023-02-26T20:50:53.609Z,4.83
2023-02-26T20:53:23.387Z,11.00
2023-02-26T20:55:50.266Z,8.80
2023-02-26T20:58:17.358Z,6.27
2023-02-26T21:00:45.678Z,7.00
2023-02-26T21:03:12.711Z,5.07
2023-02-26T21:05:39.986Z,5.43
2023-02-26T21:08:06.809Z,5.00
2023-02-26T21:10:33.746Z,6.30
2023-02-26T21:13:00.558Z,7.87
2023-02-26T21:15:27.481Z,4.37
2023-02-26T21:17:54.403Z,5.23
2023-02-26T21:20:22.354Z,4.67
2023-02-26T21:22:50.152Z,4.20
2023-02-26T21:25:18.487Z,4.13
2023-02-26T21:27:45.400Z,4.27
2023-02-26T21:30:14.555Z,4.77
2023-02-26T21:32:41.760Z,4.67
2023-02-26T21:35:16.072Z,3.67
2023-02-26T21:37:44.304Z,4.43
2023-02-26T21:40:12.872Z,3.10
2023-02-26T21:42:39.824Z,5.10
2023-02-26T21:45:07.469Z,3.67
2023-02-26T21:47:34.316Z,4.07
2023-02-26T21:50:01.142Z,3.50
2023-02-26T21:52:29.003Z,2.83
2023-02-26T21:54:57.253Z,4.10
2023-02-26T21:57:25.553Z,4.70
2023-02-26T21:59:53.477Z,3.73
2023-02-26T22:02:20.876Z,3.17
2023-02-26T22:04:49.146Z,4.03
2023-02-26T22:07:16.162Z,3.13
2023-02-26T22:09:46.289Z,3.93
2023-02-26T22:12:14.276Z,4.73
2023-02-26T22:14:41.324Z,3.60
2023-02-26T22:17:08.572Z,4.90
2023-02-26T22:19:37.077Z,4.87
2023-02-26T22:22:03.990Z,4.03
2023-02-26T22:24:31.325Z,4.30
2023-02-26T22:26:58.305Z,5.10
2023-02-26T22:29:25.400Z,4.27
2023-02-26T22:31:53.998Z,3.93
2023-02-26T22:34:20.977Z,4.83
2023-02-26T22:36:48.088Z,4.50
2023-02-26T22:39:15.238Z,4.83
2023-02-26T22:41:42.095Z,3.63
2023-02-26T22:44:08.958Z,4.73
2023-02-26T22:46:35.867Z,4.20
2023-02-26T22:49:03.900Z,3.77
2023-02-26T22:51:33.133Z,5.00
2023-02-26T22:54:01.129Z,4.50
2023-02-26T22:56:28.788Z,5.27
2023-02-26T22:58:57.293Z,4.90
2023-02-26T23:01:24.252Z,4.80
2023-02-26T23:03:52.323Z,5.33
2023-02-26T23:06:19.433Z,5.47
2023-02-26T23:08:46.299Z,6.67
2023-02-26T23:11:13.152Z,4.40
2023-02-26T23:13:40.074Z,5.53
2023-02-26T23:16:11.309Z,5.57
2023-02-26T23:18:39.526Z,6.07
2023-02-26T23:21:08.251Z,6.40
2023-02-26T23:23:35.400Z,4.83
2023-02-26T23:26:02.937Z,5.53
2023-02-26T23:28:30.272Z,13.43
2023-02-26T23:30:57.161Z,6.13
2023-02-26T23:33:26.049Z,5.00
2023-02-26T23:35:52.934Z,6.50
2023-02-26T23:38:21.001Z,11.40
2023-02-26T23:40:48.393Z,26.73
2023-02-26T23:43:16.011Z,8.37
2023-02-26T23:45:43.063Z,7.83
2023-02-26T23:48:10.244Z,5.33
2023-02-26T23:50:37.112Z,5.47
2023-02-26T23:53:04.245Z,4.27
2023-02-26T23:55:31.390Z,4.30
2023-02-26T23:57:58.335Z,3.60
